Rushville, Missouri
Current Conditions -  °F | °C
As of 11:53 AM on Monday 26 Jan 2015 (Local Time) from KSTJ Reporting Station
NA  
Wind Chill: 45°   Ceiling: NA
Heat Index: 49°   Visibility: 10mi
Dew Point: 36°   Wind: 10mph
Humidity: 61%   Direction: 280°W
Pressure: 29.92"   Gusts: NA
Location:  39.59°N, 95.03°W
Report Text: KSTJ 261753Z 28009KT 10SM 09/02 A2992 RMK AO2 SLP137 I6000 T00940022 10094 21056 58008 $
Loading
Personal Weather Stations






























Interactive Weather Map New forecast layout! Learn more

10-Day Weather Forecast

Advertisements
Track Severe Weather on mobile